sensor_id;sensor_type;location;lat;lon;timestamp;temperature;humidity
7014;DHT22;3547;50.774;12.918;2024-03-02T00:00:08;6.80;32.40
7014;DHT22;3547;50.774;12.918;2024-03-02T00:02:45;6.80;33.30
7014;DHT22;3547;50.774;12.918;2024-03-02T00:05:13;6.80;35.60
7014;DHT22;3547;50.774;12.918;2024-03-02T00:07:46;6.80;34.10
7014;DHT22;3547;50.774;12.918;2024-03-02T00:10:22;6.80;35.10
7014;DHT22;3547;50.774;12.918;2024-03-02T00:12:58;6.80;34.00
7014;DHT22;3547;50.774;12.918;2024-03-02T00:18:02;6.80;33.00
7014;DHT22;3547;50.774;12.918;2024-03-02T00:20:33;6.80;35.80
7014;DHT22;3547;50.774;12.918;2024-03-02T00:23:07;6.80;36.30
7014;DHT22;3547;50.774;12.918;2024-03-02T00:25:41;6.70;39.50
7014;DHT22;3547;50.774;12.918;2024-03-02T00:28:19;6.80;35.60
7014;DHT22;3547;50.774;12.918;2024-03-02T00:31:07;6.80;34.30
7014;DHT22;3547;50.774;12.918;2024-03-02T00:33:35;6.80;36.10
7014;DHT22;3547;50.774;12.918;2024-03-02T00:36:03;6.80;37.80
7014;DHT22;3547;50.774;12.918;2024-03-02T00:38:34;6.80;39.20
7014;DHT22;3547;50.774;12.918;2024-03-02T00:41:05;6.70;38.20
7014;DHT22;3547;50.774;12.918;2024-03-02T00:43:43;6.80;38.20
7014;DHT22;3547;50.774;12.918;2024-03-02T00:46:15;6.80;36.20
7014;DHT22;3547;50.774;12.918;2024-03-02T00:48:54;6.70;39.90
7014;DHT22;3547;50.774;12.918;2024-03-02T00:51:21;6.80;43.20
7014;DHT22;3547;50.774;12.918;2024-03-02T00:53:48;6.80;42.10
7014;DHT22;3547;50.774;12.918;2024-03-02T00:56:14;6.90;43.70
7014;DHT22;3547;50.774;12.918;2024-03-02T00:58:40;6.80;49.10
7014;DHT22;3547;50.774;12.918;2024-03-02T01:01:07;6.80;50.60
7014;DHT22;3547;50.774;12.918;2024-03-02T01:03:33;6.80;47.20
7014;DHT22;3547;50.774;12.918;2024-03-02T01:06:00;6.70;48.80
7014;DHT22;3547;50.774;12.918;2024-03-02T01:08:26;6.80;48.40
7014;DHT22;3547;50.774;12.918;2024-03-02T01:10:52;6.80;53.30
7014;DHT22;3547;50.774;12.918;2024-03-02T01:13:18;6.80;48.20
7014;DHT22;3547;50.774;12.918;2024-03-02T01:15:44;6.80;45.90
7014;DHT22;3547;50.774;12.918;2024-03-02T01:18:14;6.80;51.80
7014;DHT22;3547;50.774;12.918;2024-03-02T01:20:43;6.90;55.70
7014;DHT22;3547;50.774;12.918;2024-03-02T01:23:09;6.90;55.60
7014;DHT22;3547;50.774;12.918;2024-03-02T01:25:35;6.90;50.70
7014;DHT22;3547;50.774;12.918;2024-03-02T01:28:02;6.90;44.20
7014;DHT22;3547;50.774;12.918;2024-03-02T01:30:28;6.90;48.30
7014;DHT22;3547;50.774;12.918;2024-03-02T01:32:54;6.90;58.70
7014;DHT22;3547;50.774;12.918;2024-03-02T01:35:23;6.90;59.90
7014;DHT22;3547;50.774;12.918;2024-03-02T01:37:49;6.90;73.50
7014;DHT22;3547;50.774;12.918;2024-03-02T01:40:16;6.90;63.20
7014;DHT22;3547;50.774;12.918;2024-03-02T01:42:43;6.90;70.90
7014;DHT22;3547;50.774;12.918;2024-03-02T01:45:09;6.90;66.80
7014;DHT22;3547;50.774;12.918;2024-03-02T01:47:35;6.90;71.80
7014;DHT22;3547;50.774;12.918;2024-03-02T01:50:05;6.90;67.00
7014;DHT22;3547;50.774;12.918;2024-03-02T01:52:34;6.90;66.20
7014;DHT22;3547;50.774;12.918;2024-03-02T01:55:01;7.00;69.60
7014;DHT22;3547;50.774;12.918;2024-03-02T01:57:27;7.00;73.50
7014;DHT22;3547;50.774;12.918;2024-03-02T01:59:53;7.00;83.10
7014;DHT22;3547;50.774;12.918;2024-03-02T02:02:19;7.00;70.80
7014;DHT22;3547;50.774;12.918;2024-03-02T02:04:46;7.10;67.80
7014;DHT22;3547;50.774;12.918;2024-03-02T02:07:12;7.00;59.80
7014;DHT22;3547;50.774;12.918;2024-03-02T02:09:43;6.90;57.50
7014;DHT22;3547;50.774;12.918;2024-03-02T02:12:10;7.00;63.30
7014;DHT22;3547;50.774;12.918;2024-03-02T02:14:37;7.00;61.40
7014;DHT22;3547;50.774;12.918;2024-03-02T02:17:03;6.90;64.10
7014;DHT22;3547;50.774;12.918;2024-03-02T02:19:34;6.90;65.20
7014;DHT22;3547;50.774;12.918;2024-03-02T02:22:00;6.90;61.60
7014;DHT22;3547;50.774;12.918;2024-03-02T02:24:26;6.90;66.20
7014;DHT22;3547;50.774;12.918;2024-03-02T02:26:52;6.90;63.40
7014;DHT22;3547;50.774;12.918;2024-03-02T02:29:18;6.90;63.70
7014;DHT22;3547;50.774;12.918;2024-03-02T02:31:45;6.90;61.70
7014;DHT22;3547;50.774;12.918;2024-03-02T02:34:11;6.90;67.20
7014;DHT22;3547;50.774;12.918;2024-03-02T02:36:38;6.90;70.80
7014;DHT22;3547;50.774;12.918;2024-03-02T02:39:08;6.90;70.00
7014;DHT22;3547;50.774;12.918;2024-03-02T02:41:36;6.90;63.50
7014;DHT22;3547;50.774;12.918;2024-03-02T02:44:02;6.90;61.50
7014;DHT22;3547;50.774;12.918;2024-03-02T02:46:29;6.90;57.00
7014;DHT22;3547;50.774;12.918;2024-03-02T02:48:55;6.80;59.20
7014;DHT22;3547;50.774;12.918;2024-03-02T02:51:22;6.80;70.70
7014;DHT22;3547;50.774;12.918;2024-03-02T02:53:48;6.80;63.30
7014;DHT22;3547;50.774;12.918;2024-03-02T02:56:14;6.70;62.70
7014;DHT22;3547;50.774;12.918;2024-03-02T02:58:40;6.70;60.90
7014;DHT22;3547;50.774;12.918;2024-03-02T03:01:07;6.70;60.30
7014;DHT22;3547;50.774;12.918;2024-03-02T03:03:34;6.80;65.70
7014;DHT22;3547;50.774;12.918;2024-03-02T03:06:00;6.80;65.40
7014;DHT22;3547;50.774;12.918;2024-03-02T03:08:26;6.80;62.80
7014;DHT22;3547;50.774;12.918;2024-03-02T03:10:52;6.90;65.70
7014;DHT22;3547;50.774;12.918;2024-03-02T03:13:18;6.80;61.20
7014;DHT22;3547;50.774;12.918;2024-03-02T03:15:48;6.80;66.20
7014;DHT22;3547;50.774;12.918;2024-03-02T03:18:14;6.80;68.90
7014;DHT22;3547;50.774;12.918;2024-03-02T03:20:40;6.80;65.30
7014;DHT22;3547;50.774;12.918;2024-03-02T03:23:06;6.80;66.00
7014;DHT22;3547;50.774;12.918;2024-03-02T03:25:33;6.90;62.50
7014;DHT22;3547;50.774;12.918;2024-03-02T03:27:59;6.80;61.90
7014;DHT22;3547;50.774;12.918;2024-03-02T03:30:27;6.80;59.90
7014;DHT22;3547;50.774;12.918;2024-03-02T03:32:56;6.80;75.70
7014;DHT22;3547;50.774;12.918;2024-03-02T03:35:22;6.80;66.40
7014;DHT22;3547;50.774;12.918;2024-03-02T03:37:48;6.80;62.90
7014;DHT22;3547;50.774;12.918;2024-03-02T03:40:14;6.80;56.90
7014;DHT22;3547;50.774;12.918;2024-03-02T03:42:41;6.80;56.00
7014;DHT22;3547;50.774;12.918;2024-03-02T03:45:07;6.80;55.40
7014;DHT22;3547;50.774;12.918;2024-03-02T03:47:39;6.90;54.20
7014;DHT22;3547;50.774;12.918;2024-03-02T03:50:06;6.80;54.60
7014;DHT22;3547;50.774;12.918;2024-03-02T03:52:33;6.80;53.40
7014;DHT22;3547;50.774;12.918;2024-03-02T03:54:59;6.80;54.80
7014;DHT22;3547;50.774;12.918;2024-03-02T03:57:26;6.90;55.30
7014;DHT22;3547;50.774;12.918;2024-03-02T03:59:53;7.00;57.10
7014;DHT22;3547;50.774;12.918;2024-03-02T04:02:19;7.00;59.20
7014;DHT22;3547;50.774;12.918;2024-03-02T04:04:49;7.00;62.10
7014;DHT22;3547;50.774;12.918;2024-03-02T04:07:15;6.90;62.80
7014;DHT22;3547;50.774;12.918;2024-03-02T04:09:41;6.90;79.00
7014;DHT22;3547;50.774;12.918;2024-03-02T04:12:07;6.90;69.10
7014;DHT22;3547;50.774;12.918;2024-03-02T04:14:34;6.90;59.00
7014;DHT22;3547;50.774;12.918;2024-03-02T04:17:00;6.80;59.90
7014;DHT22;3547;50.774;12.918;2024-03-02T04:19:26;6.80;59.00
7014;DHT22;3547;50.774;12.918;2024-03-02T04:21:55;6.80;60.40
7014;DHT22;3547;50.774;12.918;2024-03-02T04:24:21;6.80;59.40
7014;DHT22;3547;50.774;12.918;2024-03-02T04:26:47;6.70;59.70
7014;DHT22;3547;50.774;12.918;2024-03-02T04:29:13;6.70;62.60
7014;DHT22;3547;50.774;12.918;2024-03-02T04:31:40;6.70;64.30
7014;DHT22;3547;50.774;12.918;2024-03-02T04:34:06;6.70;63.50
7014;DHT22;3547;50.774;12.918;2024-03-02T04:36:32;6.70;61.30
7014;DHT22;3547;50.774;12.918;2024-03-02T04:39:02;6.70;60.10
7014;DHT22;3547;50.774;12.918;2024-03-02T04:41:28;6.70;62.20
7014;DHT22;3547;50.774;12.918;2024-03-02T04:43:54;6.70;63.30
7014;DHT22;3547;50.774;12.918;2024-03-02T04:46:20;6.70;58.50
7014;DHT22;3547;50.774;12.918;2024-03-02T04:48:46;6.80;57.00
7014;DHT22;3547;50.774;12.918;2024-03-02T04:51:12;6.80;57.30
7014;DHT22;3547;50.774;12.918;2024-03-02T04:53:39;6.80;55.60
7014;DHT22;3547;50.774;12.918;2024-03-02T04:56:08;6.80;51.70
7014;DHT22;3547;50.774;12.918;2024-03-02T05:02:28;6.80;52.70
7014;DHT22;3547;50.774;12.918;2024-03-02T05:04:54;6.90;52.20
7014;DHT22;3547;50.774;12.918;2024-03-02T05:07:20;6.80;54.50
7014;DHT22;3547;50.774;12.918;2024-03-02T05:09:47;6.80;58.20
7014;DHT22;3547;50.774;12.918;2024-03-02T05:12:17;6.80;58.20
7014;DHT22;3547;50.774;12.918;2024-03-02T05:15:02;6.80;66.40
7014;DHT22;3547;50.774;12.918;2024-03-02T05:17:28;6.80;69.70
7014;DHT22;3547;50.774;12.918;2024-03-02T05:19:54;6.80;69.50
7014;DHT22;3547;50.774;12.918;2024-03-02T05:22:20;6.90;69.30
7014;DHT22;3547;50.774;12.918;2024-03-02T05:24:47;6.90;64.40
7014;DHT22;3547;50.774;12.918;2024-03-02T05:27:13;6.80;62.60
7014;DHT22;3547;50.774;12.918;2024-03-02T05:29:39;6.80;60.70
7014;DHT22;3547;50.774;12.918;2024-03-02T05:32:05;6.90;65.40
7014;DHT22;3547;50.774;12.918;2024-03-02T05:34:31;6.90;58.20
7014;DHT22;3547;50.774;12.918;2024-03-02T05:37:01;6.90;54.70
7014;DHT22;3547;50.774;12.918;2024-03-02T05:39:27;6.90;54.10
7014;DHT22;3547;50.774;12.918;2024-03-02T05:41:53;6.80;56.30
7014;DHT22;3547;50.774;12.918;2024-03-02T05:44:19;6.80;57.40
7014;DHT22;3547;50.774;12.918;2024-03-02T05:46:48;6.80;57.90
7014;DHT22;3547;50.774;12.918;2024-03-02T05:49:15;6.80;55.20
7014;DHT22;3547;50.774;12.918;2024-03-02T05:51:41;6.90;54.60
7014;DHT22;3547;50.774;12.918;2024-03-02T05:54:07;6.90;53.80
7014;DHT22;3547;50.774;12.918;2024-03-02T05:56:33;7.00;53.60
7014;DHT22;3547;50.774;12.918;2024-03-02T05:58:59;7.00;53.50
7014;DHT22;3547;50.774;12.918;2024-03-02T06:01:51;6.90;50.00
7014;DHT22;3547;50.774;12.918;2024-03-02T06:04:17;6.90;50.60
7014;DHT22;3547;50.774;12.918;2024-03-02T06:06:44;6.90;52.20
7014;DHT22;3547;50.774;12.918;2024-03-02T06:09:10;6.80;53.00
7014;DHT22;3547;50.774;12.918;2024-03-02T06:11:40;6.80;57.40
7014;DHT22;3547;50.774;12.918;2024-03-02T06:14:09;6.80;58.40
7014;DHT22;3547;50.774;12.918;2024-03-02T06:16:35;6.80;57.50
7014;DHT22;3547;50.774;12.918;2024-03-02T06:19:04;6.80;58.30
7014;DHT22;3547;50.774;12.918;2024-03-02T06:21:31;6.80;55.30
7014;DHT22;3547;50.774;12.918;2024-03-02T06:23:57;6.90;55.70
7014;DHT22;3547;50.774;12.918;2024-03-02T06:26:23;6.90;59.70
7014;DHT22;3547;50.774;12.918;2024-03-02T06:28:49;6.90;62.10
7014;DHT22;3547;50.774;12.918;2024-03-02T06:31:16;6.90;65.80
7014;DHT22;3547;50.774;12.918;2024-03-02T06:33:42;6.90;63.70
7014;DHT22;3547;50.774;12.918;2024-03-02T06:36:12;6.90;65.10
7014;DHT22;3547;50.774;12.918;2024-03-02T06:38:40;6.90;62.30
7014;DHT22;3547;50.774;12.918;2024-03-02T06:41:06;6.90;65.90
7014;DHT22;3547;50.774;12.918;2024-03-02T06:43:36;6.90;73.90
7014;DHT22;3547;50.774;12.918;2024-03-02T06:46:04;6.90;71.70
7014;DHT22;3547;50.774;12.918;2024-03-02T06:48:30;6.90;70.50
7014;DHT22;3547;50.774;12.918;2024-03-02T06:50:57;7.00;64.40
7014;DHT22;3547;50.774;12.918;2024-03-02T06:53:24;7.00;68.10
7014;DHT22;3547;50.774;12.918;2024-03-02T06:55:50;7.10;64.90
7014;DHT22;3547;50.774;12.918;2024-03-02T06:58:16;7.10;64.60
7014;DHT22;3547;50.774;12.918;2024-03-02T07:00:43;7.10;64.70
7014;DHT22;3547;50.774;12.918;2024-03-02T07:03:11;7.20;63.80
7014;DHT22;3547;50.774;12.918;2024-03-02T07:05:41;7.20;70.00
7014;DHT22;3547;50.774;12.918;2024-03-02T07:08:07;7.30;75.40
7014;DHT22;3547;50.774;12.918;2024-03-02T07:10:33;7.40;79.00
7014;DHT22;3547;50.774;12.918;2024-03-02T07:13:00;7.40;77.50
7014;DHT22;3547;50.774;12.918;2024-03-02T07:15:26;7.50;69.50
7014;DHT22;3547;50.774;12.918;2024-03-02T07:18:10;7.50;58.50
7014;DHT22;3547;50.774;12.918;2024-03-02T07:20:37;7.60;57.40
7014;DHT22;3547;50.774;12.918;2024-03-02T07:23:07;7.60;54.70
7014;DHT22;3547;50.774;12.918;2024-03-02T07:25:35;7.70;53.40
7014;DHT22;3547;50.774;12.918;2024-03-02T07:28:01;7.80;56.80
7014;DHT22;3547;50.774;12.918;2024-03-02T07:30:27;7.80;56.20
7014;DHT22;3547;50.774;12.918;2024-03-02T07:32:53;7.90;55.70
7014;DHT22;3547;50.774;12.918;2024-03-02T07:35:20;7.90;53.70
7014;DHT22;3547;50.774;12.918;2024-03-02T07:37:47;8.00;54.70
7014;DHT22;3547;50.774;12.918;2024-03-02T07:40:14;8.10;52.90
7014;DHT22;3547;50.774;12.918;2024-03-02T07:42:40;8.10;54.10
7014;DHT22;3547;50.774;12.918;2024-03-02T07:45:07;8.20;50.40
7014;DHT22;3547;50.774;12.918;2024-03-02T07:47:34;8.20;49.30
7014;DHT22;3547;50.774;12.918;2024-03-02T07:50:01;8.30;49.20
7014;DHT22;3547;50.774;12.918;2024-03-02T07:52:27;8.30;47.80
7014;DHT22;3547;50.774;12.918;2024-03-02T07:54:53;8.30;47.40
7014;DHT22;3547;50.774;12.918;2024-03-02T07:57:20;8.40;45.70
7014;DHT22;3547;50.774;12.918;2024-03-02T07:59:46;8.50;41.80
7014;DHT22;3547;50.774;12.918;2024-03-02T08:02:13;8.50;42.90
7014;DHT22;3547;50.774;12.918;2024-03-02T08:04:39;8.50;40.90
7014;DHT22;3547;50.774;12.918;2024-03-02T08:07:06;8.50;37.40
7014;DHT22;3547;50.774;12.918;2024-03-02T08:09:32;8.50;36.80
7014;DHT22;3547;50.774;12.918;2024-03-02T08:11:58;8.50;35.30
7014;DHT22;3547;50.774;12.918;2024-03-02T08:17:47;8.60;36.00
7014;DHT22;3547;50.774;12.918;2024-03-02T08:20:15;8.60;34.60
7014;DHT22;3547;50.774;12.918;2024-03-02T08:22:41;8.70;32.20
7014;DHT22;3547;50.774;12.918;2024-03-02T08:25:08;8.60;28.50
7014;DHT22;3547;50.774;12.918;2024-03-02T08:27:34;8.70;29.80
7014;DHT22;3547;50.774;12.918;2024-03-02T08:30:00;8.60;39.70
7014;DHT22;3547;50.774;12.918;2024-03-02T08:32:26;8.70;35.30
7014;DHT22;3547;50.774;12.918;2024-03-02T08:34:53;8.70;32.40
7014;DHT22;3547;50.774;12.918;2024-03-02T08:37:19;8.70;30.50
7014;DHT22;3547;50.774;12.918;2024-03-02T08:39:45;8.80;30.70
7014;DHT22;3547;50.774;12.918;2024-03-02T08:42:11;8.90;31.50
7014;DHT22;3547;50.774;12.918;2024-03-02T08:44:38;8.90;32.40
7014;DHT22;3547;50.774;12.918;2024-03-02T08:47:04;9.00;31.00
7014;DHT22;3547;50.774;12.918;2024-03-02T08:49:30;9.00;32.50
7014;DHT22;3547;50.774;12.918;2024-03-02T08:51:56;9.10;28.80
7014;DHT22;3547;50.774;12.918;2024-03-02T08:54:23;9.10;30.40
7014;DHT22;3547;50.774;12.918;2024-03-02T08:56:49;9.10;27.80
7014;DHT22;3547;50.774;12.918;2024-03-02T08:59:16;9.00;34.30
7014;DHT22;3547;50.774;12.918;2024-03-02T09:01:42;9.00;28.30
7014;DHT22;3547;50.774;12.918;2024-03-02T09:04:09;8.90;26.60
7014;DHT22;3547;50.774;12.918;2024-03-02T09:06:35;8.80;25.10
7014;DHT22;3547;50.774;12.918;2024-03-02T09:09:01;8.80;25.90
7014;DHT22;3547;50.774;12.918;2024-03-02T09:11:27;8.80;26.20
7014;DHT22;3547;50.774;12.918;2024-03-02T09:14:21;8.80;25.50
7014;DHT22;3547;50.774;12.918;2024-03-02T09:16:47;8.90;27.50
7014;DHT22;3547;50.774;12.918;2024-03-02T09:19:13;8.90;26.70
7014;DHT22;3547;50.774;12.918;2024-03-02T09:21:42;8.90;28.50
7014;DHT22;3547;50.774;12.918;2024-03-02T09:24:09;8.90;28.50
7014;DHT22;3547;50.774;12.918;2024-03-02T09:26:54;8.90;28.80
7014;DHT22;3547;50.774;12.918;2024-03-02T09:29:23;9.00;28.50
7014;DHT22;3547;50.774;12.918;2024-03-02T09:31:49;9.10;29.60
7014;DHT22;3547;50.774;12.918;2024-03-02T09:34:17;9.10;26.60
7014;DHT22;3547;50.774;12.918;2024-03-02T09:36:52;9.20;27.50
7014;DHT22;3547;50.774;12.918;2024-03-02T09:39:21;9.30;28.90
7014;DHT22;3547;50.774;12.918;2024-03-02T09:41:48;9.40;26.30
7014;DHT22;3547;50.774;12.918;2024-03-02T09:44:14;9.50;23.60
7014;DHT22;3547;50.774;12.918;2024-03-02T09:46:41;9.60;22.60
7014;DHT22;3547;50.774;12.918;2024-03-02T09:49:10;9.70;23.40
7014;DHT22;3547;50.774;12.918;2024-03-02T09:51:37;9.80;21.90
7014;DHT22;3547;50.774;12.918;2024-03-02T09:54:04;10.00;16.80
7014;DHT22;3547;50.774;12.918;2024-03-02T09:56:30;10.10;19.30
7014;DHT22;3547;50.774;12.918;2024-03-02T09:58:57;10.30;17.40
7014;DHT22;3547;50.774;12.918;2024-03-02T10:01:23;10.40;15.60
7014;DHT22;3547;50.774;12.918;2024-03-02T10:07:16;10.50;11.00
7014;DHT22;3547;50.774;12.918;2024-03-02T10:09:44;10.50;9.30
7014;DHT22;3547;50.774;12.918;2024-03-02T10:12:12;10.60;11.90
7014;DHT22;3547;50.774;12.918;2024-03-02T10:14:39;10.60;9.40
7014;DHT22;3547;50.774;12.918;2024-03-02T10:17:13;10.60;10.60
7014;DHT22;3547;50.774;12.918;2024-03-02T10:19:39;10.80;12.40
7014;DHT22;3547;50.774;12.918;2024-03-02T10:22:08;11.00;9.10
7014;DHT22;3547;50.774;12.918;2024-03-02T10:24:40;11.20;10.00
7014;DHT22;3547;50.774;12.918;2024-03-02T10:27:09;11.50;8.90
7014;DHT22;3547;50.774;12.918;2024-03-02T10:29:40;11.60;7.50
7014;DHT22;3547;50.774;12.918;2024-03-02T10:32:13;11.70;8.30
7014;DHT22;3547;50.774;12.918;2024-03-02T10:34:40;11.70;3.60
7014;DHT22;3547;50.774;12.918;2024-03-02T10:37:07;11.70;2.90
7014;DHT22;3547;50.774;12.918;2024-03-02T10:39:37;11.60;1.00
7014;DHT22;3547;50.774;12.918;2024-03-02T10:42:09;11.50;1.00
7014;DHT22;3547;50.774;12.918;2024-03-02T10:44:35;11.60;1.00
7014;DHT22;3547;50.774;12.918;2024-03-02T10:47:05;11.60;1.00
7014;DHT22;3547;50.774;12.918;2024-03-02T10:49:32;11.60;1.00
7014;DHT22;3547;50.774;12.918;2024-03-02T10:51:59;11.70;1.00
7014;DHT22;3547;50.774;12.918;2024-03-02T10:54:26;11.80;1.00
7014;DHT22;3547;50.774;12.918;2024-03-02T10:56:58;11.80;1.00
7014;DHT22;3547;50.774;12.918;2024-03-02T10:59:36;11.80;1.00
7014;DHT22;3547;50.774;12.918;2024-03-02T11:02:06;12.00;1.00
7014;DHT22;3547;50.774;12.918;2024-03-02T11:04:37;12.10;1.00
7014;DHT22;3547;50.774;12.918;2024-03-02T11:07:07;12.30;1.00
7014;DHT22;3547;50.774;12.918;2024-03-02T11:09:35;12.40;1.00
7014;DHT22;3547;50.774;12.918;2024-03-02T11:12:48;12.80;1.00
7014;DHT22;3547;50.774;12.918;2024-03-02T11:15:18;13.10;1.00
7014;DHT22;3547;50.774;12.918;2024-03-02T11:17:48;13.30;1.00
7014;DHT22;3547;50.774;12.918;2024-03-02T11:20:18;13.40;1.00
7014;DHT22;3547;50.774;12.918;2024-03-02T11:22:45;13.40;1.00
7014;DHT22;3547;50.774;12.918;2024-03-02T11:25:25;13.50;1.00
7014;DHT22;3547;50.774;12.918;2024-03-02T11:33:12;13.60;1.00
7014;DHT22;3547;50.774;12.918;2024-03-02T11:35:43;13.80;1.00
7014;DHT22;3547;50.774;12.918;2024-03-02T11:38:12;13.90;1.00
7014;DHT22;3547;50.774;12.918;2024-03-02T11:40:39;14.10;1.00
7014;DHT22;3547;50.774;12.918;2024-03-02T11:43:06;14.40;1.00
7014;DHT22;3547;50.774;12.918;2024-03-02T11:45:33;14.40;1.00
7014;DHT22;3547;50.774;12.918;2024-03-02T11:48:06;14.70;1.00
7014;DHT22;3547;50.774;12.918;2024-03-02T11:50:48;14.90;1.00
7014;DHT22;3547;50.774;12.918;2024-03-02T11:53:20;15.00;1.00
7014;DHT22;3547;50.774;12.918;2024-03-02T11:55:46;15.00;1.00
7014;DHT22;3547;50.774;12.918;2024-03-02T11:58:14;15.10;1.00
7014;DHT22;3547;50.774;12.918;2024-03-02T12:00:40;15.20;1.00
7014;DHT22;3547;50.774;12.918;2024-03-02T12:03:08;15.30;1.00
7014;DHT22;3547;50.774;12.918;2024-03-02T12:05:35;15.40;1.00
7014;DHT22;3547;50.774;12.918;2024-03-02T12:08:03;15.50;1.00
7014;DHT22;3547;50.774;12.918;2024-03-02T12:10:34;15.80;1.00
7014;DHT22;3547;50.774;12.918;2024-03-02T12:13:06;15.80;1.00
7014;DHT22;3547;50.774;12.918;2024-03-02T12:15:38;15.70;1.00
7014;DHT22;3547;50.774;12.918;2024-03-02T12:18:05;15.40;1.00
7014;DHT22;3547;50.774;12.918;2024-03-02T12:20:33;15.20;1.00
7014;DHT22;3547;50.774;12.918;2024-03-02T12:23:01;15.00;1.00
7014;DHT22;3547;50.774;12.918;2024-03-02T12:25:28;15.00;1.00
7014;DHT22;3547;50.774;12.918;2024-03-02T12:28:00;14.90;1.00
7014;DHT22;3547;50.774;12.918;2024-03-02T12:30:29;14.70;1.00
7014;DHT22;3547;50.774;12.918;2024-03-02T12:32:56;14.60;1.00
7014;DHT22;3547;50.774;12.918;2024-03-02T12:35:24;14.50;1.00
7014;DHT22;3547;50.774;12.918;2024-03-02T12:37:52;14.50;1.00
7014;DHT22;3547;50.774;12.918;2024-03-02T12:40:19;14.40;1.00
7014;DHT22;3547;50.774;12.918;2024-03-02T12:42:46;14.50;1.00
7014;DHT22;3547;50.774;12.918;2024-03-02T12:45:16;14.60;1.00
7014;DHT22;3547;50.774;12.918;2024-03-02T12:47:49;14.70;1.00
7014;DHT22;3547;50.774;12.918;2024-03-02T12:50:16;14.80;1.00
7014;DHT22;3547;50.774;12.918;2024-03-02T12:52:42;14.80;1.00
7014;DHT22;3547;50.774;12.918;2024-03-02T12:55:09;14.80;1.00
7014;DHT22;3547;50.774;12.918;2024-03-02T12:57:35;14.80;1.00
7014;DHT22;3547;50.774;12.918;2024-03-02T13:00:06;14.80;1.00
7014;DHT22;3547;50.774;12.918;2024-03-02T13:02:40;14.80;1.00
7014;DHT22;3547;50.774;12.918;2024-03-02T13:05:07;14.80;1.00
7014;DHT22;3547;50.774;12.918;2024-03-02T13:07:40;14.90;1.00
7014;DHT22;3547;50.774;12.918;2024-03-02T13:10:07;15.00;1.00
7014;DHT22;3547;50.774;12.918;2024-03-02T13:12:37;15.00;1.00
7014;DHT22;3547;50.774;12.918;2024-03-02T13:15:04;15.00;1.00
7014;DHT22;3547;50.774;12.918;2024-03-02T13:17:37;15.10;1.00
7014;DHT22;3547;50.774;12.918;2024-03-02T13:20:05;15.10;1.00
7014;DHT22;3547;50.774;12.918;2024-03-02T13:22:36;15.20;1.00
7014;DHT22;3547;50.774;12.918;2024-03-02T13:25:03;15.30;1.00
7014;DHT22;3547;50.774;12.918;2024-03-02T13:27:34;15.40;1.00
7014;DHT22;3547;50.774;12.918;2024-03-02T13:30:01;15.50;1.00
7014;DHT22;3547;50.774;12.918;2024-03-02T13:32:30;15.60;1.00
7014;DHT22;3547;50.774;12.918;2024-03-02T13:35:00;15.50;1.00
7014;DHT22;3547;50.774;12.918;2024-03-02T13:37:26;15.30;1.00
7014;DHT22;3547;50.774;12.918;2024-03-02T13:39:52;15.20;1.00
7014;DHT22;3547;50.774;12.918;2024-03-02T13:42:18;15.00;1.00
7014;DHT22;3547;50.774;12.918;2024-03-02T13:44:44;14.80;1.00
7014;DHT22;3547;50.774;12.918;2024-03-02T13:47:15;14.70;1.00
7014;DHT22;3547;50.774;12.918;2024-03-02T13:49:42;14.70;1.00
7014;DHT22;3547;50.774;12.918;2024-03-02T13:52:18;14.70;1.00
7014;DHT22;3547;50.774;12.918;2024-03-02T13:54:46;14.50;1.00
7014;DHT22;3547;50.774;12.918;2024-03-02T13:57:13;14.40;1.00
7014;DHT22;3547;50.774;12.918;2024-03-02T13:59:40;14.50;1.00
7014;DHT22;3547;50.774;12.918;2024-03-02T14:02:07;14.60;1.00
7014;DHT22;3547;50.774;12.918;2024-03-02T14:04:35;14.60;1.00
7014;DHT22;3547;50.774;12.918;2024-03-02T14:07:05;14.70;1.00
7014;DHT22;3547;50.774;12.918;2024-03-02T14:09:35;14.70;1.00
7014;DHT22;3547;50.774;12.918;2024-03-02T14:12:02;14.80;1.00
7014;DHT22;3547;50.774;12.918;2024-03-02T14:14:28;14.80;1.00
7014;DHT22;3547;50.774;12.918;2024-03-02T14:16:54;14.80;1.00
7014;DHT22;3547;50.774;12.918;2024-03-02T14:19:30;14.90;1.00
7014;DHT22;3547;50.774;12.918;2024-03-02T14:21:56;14.80;1.00
7014;DHT22;3547;50.774;12.918;2024-03-02T14:24:25;14.70;1.00
7014;DHT22;3547;50.774;12.918;2024-03-02T14:26:53;14.80;1.00
7014;DHT22;3547;50.774;12.918;2024-03-02T14:29:19;14.80;1.00
7014;DHT22;3547;50.774;12.918;2024-03-02T14:31:45;14.90;1.00
7014;DHT22;3547;50.774;12.918;2024-03-02T14:34:14;14.70;1.00
7014;DHT22;3547;50.774;12.918;2024-03-02T14:36:41;14.70;1.00
7014;DHT22;3547;50.774;12.918;2024-03-02T14:39:13;14.70;1.00
7014;DHT22;3547;50.774;12.918;2024-03-02T14:41:46;14.60;1.00
7014;DHT22;3547;50.774;12.918;2024-03-02T14:44:12;14.60;1.00
7014;DHT22;3547;50.774;12.918;2024-03-02T14:46:38;14.50;1.00
7014;DHT22;3547;50.774;12.918;2024-03-02T14:49:05;14.50;1.00
7014;DHT22;3547;50.774;12.918;2024-03-02T14:51:31;14.30;1.00
7014;DHT22;3547;50.774;12.918;2024-03-02T14:53:58;14.20;1.00
7014;DHT22;3547;50.774;12.918;2024-03-02T14:56:27;14.20;1.00
7014;DHT22;3547;50.774;12.918;2024-03-02T14:58:54;14.10;1.00
7014;DHT22;3547;50.774;12.918;2024-03-02T15:01:21;14.00;1.00
7014;DHT22;3547;50.774;12.918;2024-03-02T15:03:53;14.00;1.00
7014;DHT22;3547;50.774;12.918;2024-03-02T15:06:19;14.00;1.00
7014;DHT22;3547;50.774;12.918;2024-03-02T15:08:45;13.90;1.00
7014;DHT22;3547;50.774;12.918;2024-03-02T15:11:15;13.90;1.00
7014;DHT22;3547;50.774;12.918;2024-03-02T15:13:44;13.80;1.00
7014;DHT22;3547;50.774;12.918;2024-03-02T15:16:10;13.80;1.00
7014;DHT22;3547;50.774;12.918;2024-03-02T15:18:37;13.60;1.00
7014;DHT22;3547;50.774;12.918;2024-03-02T15:21:03;13.70;1.00
7014;DHT22;3547;50.774;12.918;2024-03-02T15:23:32;13.60;1.00
7014;DHT22;3547;50.774;12.918;2024-03-02T15:25:59;13.40;1.00
7014;DHT22;3547;50.774;12.918;2024-03-02T15:28:26;13.40;1.00
7014;DHT22;3547;50.774;12.918;2024-03-02T15:30:52;13.10;1.00
7014;DHT22;3547;50.774;12.918;2024-03-02T15:33:18;13.00;1.00
7014;DHT22;3547;50.774;12.918;2024-03-02T15:35:44;13.00;1.00
7014;DHT22;3547;50.774;12.918;2024-03-02T15:38:11;13.00;1.00
7014;DHT22;3547;50.774;12.918;2024-03-02T15:40:40;12.90;1.00
7014;DHT22;3547;50.774;12.918;2024-03-02T15:43:07;12.70;1.00
7014;DHT22;3547;50.774;12.918;2024-03-02T15:45:40;12.40;1.00
7014;DHT22;3547;50.774;12.918;2024-03-02T15:48:12;12.50;1.00
7014;DHT22;3547;50.774;12.918;2024-03-02T15:50:41;12.30;1.00
7014;DHT22;3547;50.774;12.918;2024-03-02T15:53:07;12.30;1.00
7014;DHT22;3547;50.774;12.918;2024-03-02T15:55:34;12.20;1.00
7014;DHT22;3547;50.774;12.918;2024-03-02T15:58:02;12.10;1.00
7014;DHT22;3547;50.774;12.918;2024-03-02T16:00:31;12.10;1.00
7014;DHT22;3547;50.774;12.918;2024-03-02T16:02:58;12.00;1.00
7014;DHT22;3547;50.774;12.918;2024-03-02T16:05:27;12.00;1.00
7014;DHT22;3547;50.774;12.918;2024-03-02T16:07:54;12.20;1.00
7014;DHT22;3547;50.774;12.918;2024-03-02T16:10:20;12.40;1.00
7014;DHT22;3547;50.774;12.918;2024-03-02T16:12:47;12.20;1.00
7014;DHT22;3547;50.774;12.918;2024-03-02T16:15:13;11.90;1.00
7014;DHT22;3547;50.774;12.918;2024-03-02T16:17:40;11.80;1.00
7014;DHT22;3547;50.774;12.918;2024-03-02T16:20:09;11.70;1.00
7014;DHT22;3547;50.774;12.918;2024-03-02T16:22:36;11.30;1.00
7014;DHT22;3547;50.774;12.918;2024-03-02T16:25:02;11.00;1.00